VLG5YN EGPH-LEBB
Flight info
| Callsign | VLG5YN |
|---|---|
| Flight time | 2h 8m |
| Altitude | 37000 |
| Route | GOSAM P600 FENIK L612 NAVSO DCT ADZOP DCT EGTOC DCT NOKIN N862 KARNO/N0439F360 DCT ALHUP DCT ABWIV DCT PACSE DCT TONQU DCT SALCO/N0437F370 DCT NENEM N867 MAPAX |
| Aircraft | A320/M-SDE3FGHIRWY/LB1 |
Departure
| Time | 2026-04-25 18:35 |
|---|---|
| Airport | Edinburgh Airport (EGPH) |
Arrival
| Time | 2026-04-25 20:44 |
|---|---|
| Airport | Bilbao Airport (LEBB) |
| Time | Latitude | Longitude | Altitude | Speed | Heading |
|---|---|---|---|---|---|
| 2026-04-25 17:34 | 55.94877 | -3.36544 | 107 ft | 0 kts | 149° |
| 2026-04-25 18:21 | 55.94894 | -3.36563 | 104 ft | 4 kts | 152° |
| 2026-04-25 18:21 | 55.94912 | -3.36581 | 104 ft | 3 kts | 148° |
| 2026-04-25 18:22 | 55.94931 | -3.36603 | 105 ft | 4 kts | 171° |
| 2026-04-25 18:22 | 55.94936 | -3.36605 | 106 ft | 4 kts | 204° |
| 2026-04-25 18:22 | 55.94961 | -3.36549 | 106 ft | 4 kts | 239° |
| 2026-04-25 18:22 | 55.94973 | -3.36513 | 104 ft | 1 kts | 238° |
| 2026-04-25 18:23 | 55.94974 | -3.36512 | 104 ft | 0 kts | 238° |
| 2026-04-25 18:24 | 55.94973 | -3.36515 | 106 ft | 2 kts | 238° |
| 2026-04-25 18:25 | 55.94960 | -3.36554 | 105 ft | 5 kts | 240° |
| 2026-04-25 18:25 | 55.94937 | -3.36623 | 107 ft | 6 kts | 239° |
| 2026-04-25 18:25 | 55.94915 | -3.36690 | 106 ft | 7 kts | 239° |
| 2026-04-25 18:25 | 55.94896 | -3.36768 | 106 ft | 7 kts | 261° |
| 2026-04-25 18:26 | 55.94922 | -3.36846 | 105 ft | 7 kts | 304° |
| 2026-04-25 18:26 | 55.94909 | -3.36939 | 103 ft | 8 kts | 240° |
| 2026-04-25 18:26 | 55.94884 | -3.37018 | 104 ft | 6 kts | 240° |
| 2026-04-25 18:26 | 55.94866 | -3.37071 | 105 ft | 5 kts | 238° |
| 2026-04-25 18:27 | 55.94845 | -3.37131 | 104 ft | 5 kts | 240° |
| 2026-04-25 18:27 | 55.94822 | -3.37201 | 105 ft | 7 kts | 239° |
| 2026-04-25 18:27 | 55.94800 | -3.37266 | 105 ft | 6 kts | 238° |
| 2026-04-25 18:27 | 55.94769 | -3.37356 | 108 ft | 8 kts | 238° |
| 2026-04-25 18:28 | 55.94736 | -3.37454 | 110 ft | 11 kts | 239° |
| 2026-04-25 18:28 | 55.94690 | -3.37587 | 112 ft | 13 kts | 238° |
| 2026-04-25 18:28 | 55.94651 | -3.37704 | 114 ft | 9 kts | 239° |
| 2026-04-25 18:29 | 55.94577 | -3.37924 | 111 ft | 18 kts | 239° |
| 2026-04-25 18:29 | 55.94493 | -3.38168 | 110 ft | 25 kts | 239° |
| 2026-04-25 18:30 | 55.94320 | -3.38679 | 116 ft | 6 kts | 239° |
| 2026-04-25 18:30 | 55.94291 | -3.38764 | 117 ft | 0 kts | 238° |
| 2026-04-25 18:31 | 55.94289 | -3.38771 | 117 ft | 4 kts | 239° |
| 2026-04-25 18:31 | 55.94284 | -3.38838 | 120 ft | 4 kts | 281° |
| 2026-04-25 18:32 | 55.94311 | -3.38890 | 119 ft | 6 kts | 328° |
| 2026-04-25 18:32 | 55.94319 | -3.38899 | 119 ft | 0 kts | 328° |
| 2026-04-25 18:33 | 55.94328 | -3.38909 | 120 ft | 5 kts | 329° |
| 2026-04-25 18:34 | 55.94365 | -3.38947 | 117 ft | 7 kts | 329° |
| 2026-04-25 18:34 | 55.94411 | -3.38959 | 114 ft | 10 kts | 36° |
| 2026-04-25 18:34 | 55.94453 | -3.38854 | 117 ft | 12 kts | 59° |
| 2026-04-25 18:34 | 55.94558 | -3.38546 | 115 ft | 61 kts | 59° |
| 2026-04-25 18:35 | 55.94895 | -3.37554 | 111 ft | 123 kts | 59° |
| 2026-04-25 18:35 | 55.95409 | -3.36057 | 398 ft | 146 kts | 59° |
| 2026-04-25 18:35 | 55.95947 | -3.34519 | 1068 ft | 146 kts | 56° |
| 2026-04-25 18:35 | 55.96690 | -3.33190 | 1588 ft | 159 kts | 46° |
| 2026-04-25 18:36 | 55.97566 | -3.31770 | 1904 ft | 181 kts | 45° |
| 2026-04-25 18:36 | 55.98560 | -3.30163 | 2223 ft | 203 kts | 45° |
| 2026-04-25 18:36 | 55.99698 | -3.28500 | 2607 ft | 226 kts | 31° |
| 2026-04-25 18:36 | 56.01313 | -3.28030 | 2992 ft | 253 kts | 349° |
| 2026-04-25 18:37 | 56.02856 | -3.29559 | 3696 ft | 260 kts | 310° |
| 2026-04-25 18:37 | 56.03594 | -3.32455 | 4592 ft | 260 kts | 275° |
| 2026-04-25 18:37 | 56.03458 | -3.35614 | 5509 ft | 259 kts | 259° |
| 2026-04-25 18:37 | 56.02987 | -3.38744 | 5876 ft | 262 kts | 253° |
| 2026-04-25 18:38 | 56.02407 | -3.41833 | 5993 ft | 263 kts | 251° |
| 2026-04-25 18:38 | 56.01824 | -3.44926 | 6006 ft | 260 kts | 252° |
| 2026-04-25 18:38 | 56.01279 | -3.48014 | 6010 ft | 261 kts | 253° |
| 2026-04-25 18:38 | 56.00774 | -3.51105 | 6010 ft | 258 kts | 254° |
| 2026-04-25 18:39 | 56.00299 | -3.54200 | 6010 ft | 260 kts | 255° |
| 2026-04-25 18:39 | 55.99837 | -3.57336 | 6009 ft | 260 kts | 255° |
| 2026-04-25 18:39 | 55.99384 | -3.60475 | 6010 ft | 262 kts | 255° |
| 2026-04-25 18:39 | 55.98933 | -3.63629 | 6006 ft | 262 kts | 256° |
| 2026-04-25 18:40 | 55.98483 | -3.66775 | 6005 ft | 260 kts | 256° |
| 2026-04-25 18:40 | 55.98035 | -3.69914 | 6008 ft | 260 kts | 256° |
| 2026-04-25 18:40 | 55.97588 | -3.73036 | 6006 ft | 259 kts | 256° |
| 2026-04-25 18:40 | 55.97141 | -3.76145 | 6001 ft | 260 kts | 256° |
| 2026-04-25 18:41 | 55.96690 | -3.79276 | 5997 ft | 259 kts | 255° |
| 2026-04-25 18:41 | 55.96236 | -3.82398 | 5998 ft | 261 kts | 255° |
| 2026-04-25 18:41 | 55.95776 | -3.85550 | 5998 ft | 263 kts | 255° |
| 2026-04-25 18:41 | 55.95320 | -3.88686 | 5995 ft | 260 kts | 255° |
| 2026-04-25 18:42 | 55.94863 | -3.91816 | 5996 ft | 260 kts | 256° |
| 2026-04-25 18:42 | 55.94564 | -3.93879 | 5993 ft | 258 kts | 255° |
| 2026-04-25 18:42 | 55.93879 | -3.98010 | 5991 ft | 261 kts | 246° |
| 2026-04-25 18:42 | 55.93017 | -4.00867 | 5991 ft | 262 kts | 235° |
| 2026-04-25 18:43 | 55.91840 | -4.03359 | 5989 ft | 263 kts | 224° |
| 2026-04-25 18:43 | 55.90407 | -4.05390 | 5988 ft | 262 kts | 215° |
| 2026-04-25 18:43 | 55.88914 | -4.07276 | 5983 ft | 263 kts | 216° |
| 2026-04-25 18:43 | 55.87454 | -4.09133 | 5982 ft | 260 kts | 216° |
| 2026-04-25 18:44 | 55.85950 | -4.11046 | 5986 ft | 263 kts | 216° |
| 2026-04-25 18:44 | 55.84462 | -4.12938 | 5983 ft | 264 kts | 216° |
| 2026-04-25 18:44 | 55.82988 | -4.14812 | 5983 ft | 264 kts | 216° |
| 2026-04-25 18:44 | 55.81480 | -4.16727 | 5980 ft | 263 kts | 216° |
| 2026-04-25 18:45 | 55.79994 | -4.18612 | 5981 ft | 262 kts | 216° |
| 2026-04-25 18:45 | 55.78510 | -4.20492 | 5991 ft | 264 kts | 216° |
| 2026-04-25 18:45 | 55.77006 | -4.22373 | 6689 ft | 268 kts | 215° |
| 2026-04-25 18:45 | 55.75468 | -4.24281 | 7554 ft | 270 kts | 215° |
| 2026-04-25 18:46 | 55.73908 | -4.26135 | 8476 ft | 270 kts | 208° |
| 2026-04-25 18:46 | 55.72124 | -4.27254 | 9308 ft | 275 kts | 190° |
| 2026-04-25 18:46 | 55.70201 | -4.27270 | 10151 ft | 280 kts | 171° |
| 2026-04-25 18:46 | 55.68344 | -4.26123 | 10905 ft | 288 kts | 155° |
| 2026-04-25 18:47 | 55.66511 | -4.24361 | 11158 ft | 312 kts | 154° |
| 2026-04-25 18:47 | 55.64554 | -4.22440 | 11502 ft | 329 kts | 153° |
| 2026-04-25 18:47 | 55.62536 | -4.20437 | 12126 ft | 336 kts | 152° |
| 2026-04-25 18:47 | 55.60485 | -4.18393 | 12820 ft | 340 kts | 152° |
| 2026-04-25 18:48 | 55.58415 | -4.16341 | 13588 ft | 342 kts | 152° |
| 2026-04-25 18:48 | 55.56321 | -4.14276 | 14264 ft | 346 kts | 153° |
| 2026-04-25 18:48 | 55.54209 | -4.12205 | 14907 ft | 349 kts | 153° |
| 2026-04-25 18:48 | 55.52072 | -4.10121 | 15550 ft | 352 kts | 154° |
| 2026-04-25 18:49 | 55.49914 | -4.08026 | 16138 ft | 356 kts | 154° |
| 2026-04-25 18:49 | 55.47727 | -4.05909 | 16741 ft | 360 kts | 154° |
| 2026-04-25 18:49 | 55.45515 | -4.03769 | 17287 ft | 365 kts | 153° |
| 2026-04-25 18:49 | 55.43298 | -4.01621 | 17815 ft | 371 kts | 153° |
| 2026-04-25 18:50 | 55.41024 | -3.99421 | 18386 ft | 375 kts | 153° |
| 2026-04-25 18:50 | 55.38725 | -3.97197 | 18909 ft | 379 kts | 153° |
| 2026-04-25 18:50 | 55.36398 | -3.94948 | 19426 ft | 383 kts | 153° |
| 2026-04-25 18:50 | 55.34054 | -3.92683 | 19940 ft | 386 kts | 153° |
| 2026-04-25 18:51 | 55.31689 | -3.90403 | 20461 ft | 389 kts | 154° |
| 2026-04-25 18:51 | 55.30082 | -3.88858 | 20796 ft | 392 kts | 154° |
| 2026-04-25 18:51 | 55.26897 | -3.85798 | 21477 ft | 397 kts | 153° |
| 2026-04-25 18:51 | 55.24465 | -3.83457 | 21973 ft | 400 kts | 153° |
| 2026-04-25 18:52 | 55.21947 | -3.81349 | 22455 ft | 402 kts | 162° |
| 2026-04-25 18:52 | 55.19262 | -3.79952 | 22919 ft | 404 kts | 168° |
| 2026-04-25 18:52 | 55.16530 | -3.78722 | 23386 ft | 408 kts | 168° |
| 2026-04-25 18:52 | 55.13768 | -3.77473 | 23846 ft | 411 kts | 168° |
| 2026-04-25 18:53 | 55.10990 | -3.76211 | 24245 ft | 414 kts | 168° |
| 2026-04-25 18:53 | 55.08196 | -3.74940 | 24658 ft | 416 kts | 168° |
| 2026-04-25 18:53 | 55.05384 | -3.73661 | 25076 ft | 418 kts | 168° |
| 2026-04-25 18:53 | 55.02564 | -3.72380 | 25466 ft | 420 kts | 168° |
| 2026-04-25 18:54 | 54.96891 | -3.69807 | 26230 ft | 423 kts | 168° |
| 2026-04-25 18:54 | 54.94035 | -3.68517 | 26586 ft | 425 kts | 168° |
| 2026-04-25 18:54 | 54.91170 | -3.67228 | 26959 ft | 427 kts | 168° |
| 2026-04-25 18:55 | 54.88286 | -3.65933 | 27319 ft | 429 kts | 168° |
| 2026-04-25 18:55 | 54.85392 | -3.64635 | 27673 ft | 431 kts | 168° |
| 2026-04-25 18:55 | 54.82488 | -3.63337 | 28021 ft | 432 kts | 168° |
| 2026-04-25 18:55 | 54.79575 | -3.62036 | 28366 ft | 434 kts | 168° |
| 2026-04-25 18:56 | 54.76670 | -3.60734 | 28703 ft | 436 kts | 167° |
| 2026-04-25 18:56 | 54.73726 | -3.59415 | 29032 ft | 438 kts | 167° |
| 2026-04-25 18:56 | 54.70769 | -3.58095 | 29350 ft | 439 kts | 167° |
| 2026-04-25 18:56 | 54.67805 | -3.56771 | 29617 ft | 442 kts | 167° |
| 2026-04-25 18:57 | 54.64815 | -3.55438 | 29904 ft | 444 kts | 167° |
| 2026-04-25 18:57 | 54.61816 | -3.54107 | 30199 ft | 446 kts | 168° |
| 2026-04-25 18:57 | 54.58804 | -3.52775 | 30444 ft | 448 kts | 168° |
| 2026-04-25 18:57 | 54.56803 | -3.51892 | 30597 ft | 449 kts | 167° |
| 2026-04-25 18:58 | 54.52745 | -3.50099 | 30916 ft | 450 kts | 167° |
| 2026-04-25 18:58 | 54.46657 | -3.47415 | 31368 ft | 453 kts | 167° |
| 2026-04-25 18:58 | 54.43606 | -3.46073 | 31659 ft | 452 kts | 167° |
| 2026-04-25 18:59 | 54.37505 | -3.43392 | 32216 ft | 452 kts | 167° |
| 2026-04-25 18:59 | 54.31430 | -3.40727 | 32832 ft | 450 kts | 167° |
| 2026-04-25 19:00 | 54.25378 | -3.38091 | 33458 ft | 448 kts | 167° |
| 2026-04-25 19:00 | 54.22361 | -3.36779 | 33786 ft | 447 kts | 167° |
| 2026-04-25 19:01 | 54.16344 | -3.34167 | 34308 ft | 446 kts | 167° |
| 2026-04-25 19:01 | 54.13336 | -3.32866 | 34533 ft | 446 kts | 167° |
| 2026-04-25 19:01 | 54.10327 | -3.31564 | 34777 ft | 446 kts | 167° |
| 2026-04-25 19:01 | 54.07320 | -3.30266 | 35015 ft | 445 kts | 167° |
| 2026-04-25 19:02 | 54.01324 | -3.27684 | 35479 ft | 444 kts | 167° |
| 2026-04-25 19:02 | 53.98325 | -3.26432 | 35699 ft | 443 kts | 171° |
| 2026-04-25 19:02 | 53.95275 | -3.25953 | 35905 ft | 440 kts | 179° |
| 2026-04-25 19:03 | 53.91225 | -3.25679 | 36135 ft | 440 kts | 180° |
| 2026-04-25 19:03 | 53.86096 | -3.25378 | 36453 ft | 440 kts | 180° |
| 2026-04-25 19:03 | 53.83043 | -3.25210 | 36649 ft | 439 kts | 180° |
| 2026-04-25 19:04 | 53.76982 | -3.24870 | 37020 ft | 438 kts | 180° |
| 2026-04-25 19:04 | 53.73933 | -3.24694 | 37186 ft | 438 kts | 180° |
| 2026-04-25 19:05 | 53.61778 | -3.23958 | 37222 ft | 436 kts | 180° |
| 2026-04-25 19:06 | 53.55712 | -3.23601 | 37223 ft | 436 kts | 180° |
| 2026-04-25 19:06 | 53.46604 | -3.23077 | 37226 ft | 437 kts | 180° |
| 2026-04-25 19:07 | 53.37494 | -3.22556 | 37230 ft | 437 kts | 180° |
| 2026-04-25 19:08 | 53.28379 | -3.22025 | 37232 ft | 437 kts | 180° |
| 2026-04-25 19:09 | 53.18239 | -3.21427 | 37227 ft | 437 kts | 180° |
| 2026-04-25 19:09 | 53.10167 | -3.20951 | 36845 ft | 433 kts | 180° |
| 2026-04-25 19:10 | 53.07165 | -3.20775 | 36590 ft | 433 kts | 180° |
| 2026-04-25 19:10 | 53.04148 | -3.20604 | 36329 ft | 434 kts | 180° |
| 2026-04-25 19:10 | 53.01133 | -3.20438 | 36062 ft | 434 kts | 180° |
| 2026-04-25 19:10 | 52.98108 | -3.20273 | 35818 ft | 435 kts | 180° |
| 2026-04-25 19:11 | 52.95082 | -3.20107 | 35555 ft | 436 kts | 180° |
| 2026-04-25 19:11 | 52.92051 | -3.19933 | 35313 ft | 436 kts | 180° |
| 2026-04-25 19:11 | 52.89018 | -3.19755 | 35187 ft | 436 kts | 180° |
| 2026-04-25 19:12 | 52.82941 | -3.19402 | 35220 ft | 437 kts | 180° |
| 2026-04-25 19:12 | 52.76863 | -3.19053 | 35220 ft | 437 kts | 181° |
| 2026-04-25 19:13 | 52.70779 | -3.18715 | 35208 ft | 437 kts | 181° |
| 2026-04-25 19:13 | 52.64679 | -3.18367 | 35219 ft | 438 kts | 181° |
| 2026-04-25 19:14 | 52.58585 | -3.18033 | 35217 ft | 438 kts | 181° |
| 2026-04-25 19:14 | 52.52495 | -3.17699 | 35217 ft | 438 kts | 181° |
| 2026-04-25 19:15 | 52.46402 | -3.17354 | 35203 ft | 438 kts | 181° |
| 2026-04-25 19:15 | 52.41338 | -3.17060 | 35204 ft | 438 kts | 181° |
| 2026-04-25 19:16 | 52.35240 | -3.16717 | 35267 ft | 441 kts | 181° |
| 2026-04-25 19:16 | 52.32170 | -3.16551 | 35428 ft | 442 kts | 181° |
| 2026-04-25 19:16 | 52.29093 | -3.16383 | 35641 ft | 442 kts | 181° |
| 2026-04-25 19:16 | 52.26022 | -3.16216 | 35869 ft | 441 kts | 181° |
| 2026-04-25 19:17 | 52.22956 | -3.16046 | 36066 ft | 441 kts | 181° |
| 2026-04-25 19:17 | 52.19887 | -3.15871 | 36268 ft | 441 kts | 181° |
| 2026-04-25 19:17 | 52.16826 | -3.15697 | 36464 ft | 441 kts | 181° |
| 2026-04-25 19:17 | 52.13762 | -3.15523 | 36670 ft | 440 kts | 181° |
| 2026-04-25 19:18 | 52.10700 | -3.15353 | 36871 ft | 440 kts | 181° |
| 2026-04-25 19:18 | 52.07646 | -3.15190 | 37060 ft | 439 kts | 181° |
| 2026-04-25 19:18 | 52.04589 | -3.15026 | 37202 ft | 439 kts | 180° |
| 2026-04-25 19:19 | 51.98484 | -3.14696 | 37228 ft | 439 kts | 181° |
| 2026-04-25 19:19 | 51.92369 | -3.14359 | 37243 ft | 439 kts | 181° |
| 2026-04-25 19:20 | 51.86255 | -3.14034 | 37256 ft | 440 kts | 181° |
| 2026-04-25 19:20 | 51.80148 | -3.13825 | 37257 ft | 437 kts | 188° |
| 2026-04-25 19:21 | 51.74129 | -3.14973 | 37248 ft | 436 kts | 190° |
| 2026-04-25 19:21 | 51.65087 | -3.16758 | 37245 ft | 437 kts | 190° |
| 2026-04-25 19:22 | 51.59046 | -3.17949 | 37242 ft | 437 kts | 190° |
| 2026-04-25 19:23 | 51.49980 | -3.19727 | 37181 ft | 438 kts | 190° |
| 2026-04-25 19:23 | 51.40932 | -3.21491 | 37186 ft | 439 kts | 190° |
| 2026-04-25 19:24 | 51.34868 | -3.22670 | 37195 ft | 439 kts | 190° |
| 2026-04-25 19:25 | 51.22726 | -3.25028 | 37215 ft | 440 kts | 190° |
| 2026-04-25 19:25 | 51.16652 | -3.26202 | 37220 ft | 440 kts | 190° |
| 2026-04-25 19:26 | 51.10579 | -3.27373 | 37221 ft | 440 kts | 190° |
| 2026-04-25 19:26 | 51.04506 | -3.28540 | 37223 ft | 440 kts | 190° |
| 2026-04-25 19:27 | 50.99415 | -3.29515 | 37229 ft | 440 kts | 190° |
| 2026-04-25 19:27 | 50.92355 | -3.30861 | 37224 ft | 440 kts | 190° |
| 2026-04-25 19:28 | 50.86282 | -3.32019 | 37227 ft | 440 kts | 190° |
| 2026-04-25 19:28 | 50.80207 | -3.33176 | 37219 ft | 440 kts | 190° |
| 2026-04-25 19:29 | 50.74123 | -3.34331 | 37220 ft | 440 kts | 190° |
| 2026-04-25 19:29 | 50.68041 | -3.35489 | 37222 ft | 440 kts | 190° |
| 2026-04-25 19:30 | 50.61950 | -3.36646 | 37234 ft | 441 kts | 190° |
| 2026-04-25 19:30 | 50.55856 | -3.37784 | 37219 ft | 441 kts | 190° |
| 2026-04-25 19:31 | 50.49757 | -3.38917 | 37227 ft | 442 kts | 190° |
| 2026-04-25 19:31 | 50.43646 | -3.40060 | 37227 ft | 442 kts | 190° |
| 2026-04-25 19:32 | 50.37535 | -3.41215 | 37232 ft | 442 kts | 190° |
| 2026-04-25 19:32 | 50.32452 | -3.42162 | 37227 ft | 443 kts | 190° |
| 2026-04-25 19:33 | 50.25297 | -3.43482 | 37232 ft | 443 kts | 190° |
| 2026-04-25 19:33 | 50.19171 | -3.44616 | 37236 ft | 443 kts | 190° |
| 2026-04-25 19:34 | 50.13042 | -3.45745 | 37220 ft | 444 kts | 190° |
| 2026-04-25 19:34 | 50.06908 | -3.46882 | 37221 ft | 444 kts | 190° |
| 2026-04-25 19:35 | 50.00770 | -3.48019 | 37227 ft | 444 kts | 190° |
| 2026-04-25 19:35 | 49.94622 | -3.49144 | 37226 ft | 445 kts | 190° |
| 2026-04-25 19:36 | 49.88475 | -3.50264 | 37219 ft | 445 kts | 190° |
| 2026-04-25 19:36 | 49.82318 | -3.51390 | 37218 ft | 446 kts | 190° |
| 2026-04-25 19:37 | 49.76188 | -3.52506 | 37221 ft | 446 kts | 190° |
| 2026-04-25 19:37 | 49.69967 | -3.52677 | 37220 ft | 450 kts | 180° |
| 2026-04-25 19:38 | 49.63696 | -3.52197 | 37202 ft | 451 kts | 181° |
| 2026-04-25 19:38 | 49.57419 | -3.51738 | 37206 ft | 452 kts | 181° |
| 2026-04-25 19:39 | 49.51134 | -3.51281 | 37206 ft | 452 kts | 181° |
| 2026-04-25 19:39 | 49.44843 | -3.50824 | 37205 ft | 452 kts | 180° |
| 2026-04-25 19:40 | 49.38554 | -3.50359 | 37205 ft | 453 kts | 180° |
| 2026-04-25 19:40 | 49.32259 | -3.49894 | 37210 ft | 453 kts | 180° |
| 2026-04-25 19:41 | 49.25952 | -3.49430 | 37210 ft | 453 kts | 181° |
| 2026-04-25 19:41 | 49.21763 | -3.49128 | 37200 ft | 453 kts | 180° |
| 2026-04-25 19:42 | 49.13367 | -3.48523 | 37199 ft | 454 kts | 180° |
| 2026-04-25 19:42 | 49.07063 | -3.48066 | 37201 ft | 454 kts | 180° |
| 2026-04-25 19:43 | 49.00753 | -3.47604 | 37194 ft | 454 kts | 180° |
| 2026-04-25 19:43 | 48.94445 | -3.47152 | 37194 ft | 453 kts | 180° |
| 2026-04-25 19:44 | 48.88141 | -3.46706 | 37189 ft | 453 kts | 180° |
| 2026-04-25 19:44 | 48.81831 | -3.46249 | 37188 ft | 453 kts | 180° |
| 2026-04-25 19:45 | 48.75525 | -3.45794 | 37192 ft | 454 kts | 180° |
| 2026-04-25 19:45 | 48.69213 | -3.45356 | 37195 ft | 454 kts | 180° |
| 2026-04-25 19:46 | 48.62902 | -3.44914 | 37199 ft | 454 kts | 180° |
| 2026-04-25 19:46 | 48.56582 | -3.44459 | 37189 ft | 455 kts | 180° |
| 2026-04-25 19:47 | 48.50256 | -3.43999 | 37201 ft | 455 kts | 180° |
| 2026-04-25 19:47 | 48.43965 | -3.43548 | 37202 ft | 455 kts | 180° |
| 2026-04-25 19:48 | 48.37597 | -3.43116 | 37192 ft | 455 kts | 180° |
| 2026-04-25 19:48 | 48.31275 | -3.42674 | 37187 ft | 455 kts | 180° |
| 2026-04-25 19:49 | 48.27079 | -3.42378 | 37186 ft | 455 kts | 180° |
| 2026-04-25 19:49 | 48.18655 | -3.41787 | 37186 ft | 456 kts | 180° |
| 2026-04-25 19:50 | 48.09156 | -3.41132 | 37187 ft | 455 kts | 180° |
| 2026-04-25 19:51 | 48.02824 | -3.40684 | 37186 ft | 455 kts | 180° |
| 2026-04-25 19:51 | 47.96503 | -3.40240 | 37184 ft | 455 kts | 180° |
| 2026-04-25 19:52 | 47.90187 | -3.39810 | 37174 ft | 454 kts | 180° |
| 2026-04-25 19:52 | 47.83864 | -3.39373 | 37174 ft | 455 kts | 180° |
| 2026-04-25 19:53 | 47.77546 | -3.38931 | 37170 ft | 455 kts | 180° |
| 2026-04-25 19:53 | 47.71218 | -3.38495 | 37165 ft | 455 kts | 180° |
| 2026-04-25 19:54 | 47.64887 | -3.38066 | 37170 ft | 455 kts | 180° |
| 2026-04-25 19:54 | 47.58553 | -3.37637 | 37173 ft | 456 kts | 180° |
| 2026-04-25 19:55 | 47.52206 | -3.37207 | 37165 ft | 456 kts | 180° |
| 2026-04-25 19:55 | 47.45869 | -3.36773 | 37173 ft | 456 kts | 180° |
| 2026-04-25 19:56 | 47.39535 | -3.36343 | 37180 ft | 456 kts | 180° |
| 2026-04-25 19:56 | 47.33200 | -3.35917 | 37171 ft | 455 kts | 180° |
| 2026-04-25 19:57 | 47.27936 | -3.35559 | 37170 ft | 456 kts | 180° |
| 2026-04-25 19:57 | 47.21603 | -3.35131 | 37174 ft | 456 kts | 180° |
| 2026-04-25 19:58 | 47.15268 | -3.34707 | 37182 ft | 456 kts | 180° |
| 2026-04-25 19:58 | 47.08930 | -3.34289 | 37184 ft | 456 kts | 180° |
| 2026-04-25 19:59 | 47.02593 | -3.33869 | 37186 ft | 456 kts | 180° |
| 2026-04-25 19:59 | 46.96259 | -3.33442 | 37187 ft | 456 kts | 180° |
| 2026-04-25 20:00 | 46.89926 | -3.33010 | 37182 ft | 456 kts | 179° |
| 2026-04-25 20:00 | 46.83582 | -3.32576 | 37192 ft | 456 kts | 179° |
| 2026-04-25 20:01 | 46.74061 | -3.31957 | 37083 ft | 454 kts | 179° |
| 2026-04-25 20:01 | 46.70954 | -3.31754 | 36896 ft | 452 kts | 179° |
| 2026-04-25 20:01 | 46.67769 | -3.31545 | 36709 ft | 452 kts | 179° |
| 2026-04-25 20:02 | 46.64626 | -3.31339 | 36526 ft | 452 kts | 180° |
| 2026-04-25 20:02 | 46.61523 | -3.31136 | 36347 ft | 453 kts | 180° |
| 2026-04-25 20:02 | 46.58332 | -3.30928 | 36165 ft | 453 kts | 180° |
| 2026-04-25 20:02 | 46.55179 | -3.30723 | 35987 ft | 454 kts | 180° |
| 2026-04-25 20:03 | 46.52021 | -3.30518 | 35806 ft | 455 kts | 180° |
| 2026-04-25 20:03 | 46.48854 | -3.30310 | 35629 ft | 456 kts | 179° |
| 2026-04-25 20:03 | 46.45687 | -3.30101 | 35455 ft | 456 kts | 180° |
| 2026-04-25 20:03 | 46.42549 | -3.29900 | 35271 ft | 457 kts | 180° |
| 2026-04-25 20:04 | 46.39369 | -3.29698 | 35157 ft | 457 kts | 180° |
| 2026-04-25 20:04 | 46.36188 | -3.29493 | 35196 ft | 458 kts | 180° |
| 2026-04-25 20:04 | 46.29821 | -3.29080 | 35193 ft | 459 kts | 179° |
| 2026-04-25 20:05 | 46.23440 | -3.28656 | 35192 ft | 459 kts | 179° |
| 2026-04-25 20:05 | 46.17064 | -3.28241 | 35192 ft | 459 kts | 179° |
| 2026-04-25 20:06 | 46.10625 | -3.27823 | 34862 ft | 473 kts | 179° |
| 2026-04-25 20:06 | 46.07303 | -3.27612 | 34667 ft | 482 kts | 179° |
| 2026-04-25 20:06 | 46.03933 | -3.27399 | 34473 ft | 486 kts | 179° |
| 2026-04-25 20:07 | 46.00554 | -3.27182 | 34275 ft | 486 kts | 179° |
| 2026-04-25 20:07 | 45.97177 | -3.26969 | 34069 ft | 485 kts | 179° |
| 2026-04-25 20:07 | 45.93810 | -3.26756 | 33785 ft | 484 kts | 179° |
| 2026-04-25 20:07 | 45.90448 | -3.26545 | 33509 ft | 482 kts | 179° |
| 2026-04-25 20:08 | 45.87106 | -3.26328 | 33239 ft | 479 kts | 179° |
| 2026-04-25 20:08 | 45.83784 | -3.26105 | 32972 ft | 477 kts | 179° |
| 2026-04-25 20:08 | 45.80472 | -3.25885 | 32708 ft | 475 kts | 179° |
| 2026-04-25 20:08 | 45.77172 | -3.25673 | 32446 ft | 473 kts | 179° |
| 2026-04-25 20:09 | 45.73890 | -3.25466 | 32186 ft | 471 kts | 179° |
| 2026-04-25 20:09 | 45.70616 | -3.25261 | 31925 ft | 469 kts | 178° |
| 2026-04-25 20:09 | 45.67365 | -3.25061 | 31668 ft | 468 kts | 178° |
| 2026-04-25 20:09 | 45.64114 | -3.24859 | 31416 ft | 466 kts | 178° |
| 2026-04-25 20:10 | 45.61976 | -3.24722 | 31249 ft | 465 kts | 178° |
| 2026-04-25 20:10 | 45.57664 | -3.24440 | 30921 ft | 462 kts | 178° |
| 2026-04-25 20:10 | 45.54455 | -3.24235 | 30676 ft | 461 kts | 178° |
| 2026-04-25 20:10 | 45.51263 | -3.24033 | 30431 ft | 459 kts | 178° |
| 2026-04-25 20:11 | 45.48069 | -3.23833 | 30183 ft | 458 kts | 178° |
| 2026-04-25 20:11 | 45.44900 | -3.23637 | 29897 ft | 455 kts | 178° |
| 2026-04-25 20:11 | 45.41739 | -3.23440 | 29616 ft | 453 kts | 178° |
| 2026-04-25 20:11 | 45.38595 | -3.23239 | 29340 ft | 451 kts | 178° |
| 2026-04-25 20:12 | 45.35506 | -3.23046 | 29065 ft | 449 kts | 178° |
| 2026-04-25 20:12 | 45.32393 | -3.22853 | 28795 ft | 446 kts | 178° |
| 2026-04-25 20:12 | 45.29296 | -3.22659 | 28524 ft | 444 kts | 178° |
| 2026-04-25 20:12 | 45.27217 | -3.22525 | 28344 ft | 443 kts | 178° |
| 2026-04-25 20:13 | 45.23110 | -3.22261 | 27991 ft | 440 kts | 178° |
| 2026-04-25 20:13 | 45.20099 | -3.22071 | 27734 ft | 438 kts | 178° |
| 2026-04-25 20:13 | 45.17063 | -3.21882 | 27472 ft | 436 kts | 178° |
| 2026-04-25 20:13 | 45.13998 | -3.21694 | 27211 ft | 434 kts | 178° |
| 2026-04-25 20:14 | 45.11034 | -3.21509 | 26955 ft | 431 kts | 178° |
| 2026-04-25 20:14 | 45.08044 | -3.21322 | 26702 ft | 429 kts | 178° |
| 2026-04-25 20:14 | 45.05069 | -3.21137 | 26453 ft | 427 kts | 178° |
| 2026-04-25 20:14 | 45.02104 | -3.20952 | 26206 ft | 425 kts | 178° |
| 2026-04-25 20:15 | 44.99113 | -3.20766 | 25955 ft | 424 kts | 178° |
| 2026-04-25 20:15 | 44.96213 | -3.20590 | 25718 ft | 422 kts | 178° |
| 2026-04-25 20:15 | 44.93283 | -3.20410 | 25470 ft | 420 kts | 178° |
| 2026-04-25 20:15 | 44.90372 | -3.20227 | 25230 ft | 418 kts | 178° |
| 2026-04-25 20:16 | 44.87473 | -3.20045 | 24995 ft | 416 kts | 178° |
| 2026-04-25 20:16 | 44.84587 | -3.19865 | 24756 ft | 411 kts | 178° |
| 2026-04-25 20:16 | 44.81755 | -3.19688 | 24233 ft | 408 kts | 178° |
| 2026-04-25 20:16 | 44.78922 | -3.19516 | 23248 ft | 406 kts | 178° |
| 2026-04-25 20:17 | 44.76113 | -3.19345 | 22248 ft | 402 kts | 178° |
| 2026-04-25 20:17 | 44.73338 | -3.19177 | 21344 ft | 396 kts | 178° |
| 2026-04-25 20:17 | 44.70604 | -3.19009 | 20488 ft | 390 kts | 178° |
| 2026-04-25 20:17 | 44.67910 | -3.18841 | 19678 ft | 384 kts | 178° |
| 2026-04-25 20:18 | 44.65301 | -3.18677 | 19396 ft | 370 kts | 179° |
| 2026-04-25 20:18 | 44.62750 | -3.18519 | 19112 ft | 363 kts | 178° |
| 2026-04-25 20:18 | 44.60245 | -3.18368 | 18854 ft | 358 kts | 179° |
| 2026-04-25 20:18 | 44.57766 | -3.18220 | 18582 ft | 355 kts | 178° |
| 2026-04-25 20:19 | 44.55307 | -3.18072 | 18273 ft | 353 kts | 179° |
| 2026-04-25 20:19 | 44.52863 | -3.17920 | 17955 ft | 351 kts | 179° |
| 2026-04-25 20:19 | 44.50426 | -3.17766 | 17638 ft | 350 kts | 178° |
| 2026-04-25 20:19 | 44.47997 | -3.17613 | 17328 ft | 348 kts | 178° |
| 2026-04-25 20:20 | 44.45582 | -3.17467 | 17019 ft | 347 kts | 178° |
| 2026-04-25 20:20 | 44.43173 | -3.17322 | 16712 ft | 346 kts | 178° |
| 2026-04-25 20:20 | 44.40773 | -3.17180 | 16404 ft | 344 kts | 178° |
| 2026-04-25 20:20 | 44.38384 | -3.17036 | 16108 ft | 343 kts | 178° |
| 2026-04-25 20:21 | 44.36001 | -3.16889 | 15806 ft | 342 kts | 178° |
| 2026-04-25 20:21 | 44.33630 | -3.16743 | 15514 ft | 341 kts | 178° |
| 2026-04-25 20:21 | 44.31266 | -3.16599 | 15222 ft | 339 kts | 178° |
| 2026-04-25 20:21 | 44.28910 | -3.16458 | 14933 ft | 338 kts | 178° |
| 2026-04-25 20:22 | 44.26568 | -3.16315 | 14647 ft | 337 kts | 178° |
| 2026-04-25 20:22 | 44.25777 | -3.16267 | 14550 ft | 336 kts | 178° |
| 2026-04-25 20:22 | 44.21897 | -3.16031 | 14081 ft | 335 kts | 178° |
| 2026-04-25 20:22 | 44.19570 | -3.15888 | 13772 ft | 333 kts | 178° |
| 2026-04-25 20:23 | 44.17258 | -3.15746 | 13459 ft | 332 kts | 178° |
| 2026-04-25 20:23 | 44.14961 | -3.15609 | 13147 ft | 330 kts | 178° |
| 2026-04-25 20:23 | 44.12674 | -3.15477 | 12839 ft | 328 kts | 178° |
| 2026-04-25 20:23 | 44.10395 | -3.15343 | 12532 ft | 327 kts | 178° |
| 2026-04-25 20:24 | 44.08126 | -3.15210 | 12231 ft | 325 kts | 178° |
| 2026-04-25 20:24 | 44.05872 | -3.15069 | 11931 ft | 324 kts | 176° |
| 2026-04-25 20:24 | 44.03649 | -3.14601 | 11634 ft | 322 kts | 168° |
| 2026-04-25 20:24 | 44.01458 | -3.13950 | 11341 ft | 321 kts | 168° |
| 2026-04-25 20:25 | 43.99281 | -3.13315 | 11050 ft | 319 kts | 168° |
| 2026-04-25 20:25 | 43.97109 | -3.12687 | 10760 ft | 318 kts | 168° |
| 2026-04-25 20:25 | 43.94947 | -3.12066 | 10477 ft | 316 kts | 168° |
| 2026-04-25 20:25 | 43.92795 | -3.11446 | 10188 ft | 314 kts | 168° |
| 2026-04-25 20:26 | 43.90675 | -3.10834 | 9877 ft | 308 kts | 168° |
| 2026-04-25 20:26 | 43.88595 | -3.10233 | 9567 ft | 303 kts | 168° |
| 2026-04-25 20:26 | 43.86551 | -3.09643 | 9253 ft | 298 kts | 168° |
| 2026-04-25 20:26 | 43.84537 | -3.09063 | 8946 ft | 294 kts | 168° |
| 2026-04-25 20:27 | 43.82540 | -3.08488 | 8641 ft | 292 kts | 168° |
| 2026-04-25 20:27 | 43.80556 | -3.07918 | 8343 ft | 291 kts | 168° |
| 2026-04-25 20:27 | 43.78579 | -3.07352 | 8172 ft | 290 kts | 168° |
| 2026-04-25 20:27 | 43.76608 | -3.06785 | 7979 ft | 289 kts | 168° |
| 2026-04-25 20:28 | 43.74641 | -3.06219 | 7859 ft | 289 kts | 168° |
| 2026-04-25 20:28 | 43.72675 | -3.05653 | 7733 ft | 288 kts | 168° |
| 2026-04-25 20:28 | 43.70733 | -3.04987 | 7614 ft | 288 kts | 157° |
| 2026-04-25 20:28 | 43.69090 | -3.03470 | 7502 ft | 285 kts | 134° |
| 2026-04-25 20:29 | 43.67724 | -3.01491 | 7406 ft | 285 kts | 131° |
| 2026-04-25 20:29 | 43.66390 | -2.99460 | 7319 ft | 285 kts | 131° |
| 2026-04-25 20:29 | 43.65066 | -2.97431 | 7212 ft | 285 kts | 131° |
| 2026-04-25 20:29 | 43.63742 | -2.95400 | 7116 ft | 284 kts | 131° |
| 2026-04-25 20:30 | 43.62420 | -2.93372 | 7017 ft | 284 kts | 131° |
| 2026-04-25 20:30 | 43.61099 | -2.91350 | 6923 ft | 283 kts | 131° |
| 2026-04-25 20:30 | 43.59778 | -2.89331 | 6828 ft | 283 kts | 131° |
| 2026-04-25 20:30 | 43.58459 | -2.87313 | 6730 ft | 283 kts | 131° |
| 2026-04-25 20:31 | 43.57159 | -2.85318 | 6634 ft | 283 kts | 131° |
| 2026-04-25 20:31 | 43.55846 | -2.83305 | 6520 ft | 282 kts | 131° |
| 2026-04-25 20:31 | 43.54517 | -2.81270 | 6432 ft | 282 kts | 131° |
| 2026-04-25 20:31 | 43.53222 | -2.79285 | 6334 ft | 281 kts | 131° |
| 2026-04-25 20:32 | 43.51916 | -2.77281 | 6232 ft | 281 kts | 131° |
| 2026-04-25 20:32 | 43.50622 | -2.75297 | 6126 ft | 273 kts | 131° |
| 2026-04-25 20:32 | 43.49363 | -2.73370 | 6022 ft | 270 kts | 131° |
| 2026-04-25 20:32 | 43.48108 | -2.71455 | 5921 ft | 269 kts | 131° |
| 2026-04-25 20:33 | 43.46855 | -2.69543 | 5841 ft | 269 kts | 131° |
| 2026-04-25 20:33 | 43.45603 | -2.67635 | 5766 ft | 268 kts | 131° |
| 2026-04-25 20:33 | 43.44353 | -2.65726 | 5695 ft | 268 kts | 131° |
| 2026-04-25 20:33 | 43.43931 | -2.65080 | 5672 ft | 268 kts | 131° |
| 2026-04-25 20:34 | 43.41858 | -2.61908 | 5542 ft | 268 kts | 131° |
| 2026-04-25 20:34 | 43.40612 | -2.60002 | 5455 ft | 268 kts | 131° |
| 2026-04-25 20:34 | 43.39368 | -2.58098 | 5392 ft | 267 kts | 131° |
| 2026-04-25 20:34 | 43.38127 | -2.56194 | 5317 ft | 267 kts | 131° |
| 2026-04-25 20:35 | 43.36884 | -2.54293 | 5250 ft | 267 kts | 131° |
| 2026-04-25 20:35 | 43.35642 | -2.52389 | 5171 ft | 267 kts | 131° |
| 2026-04-25 20:35 | 43.34342 | -2.50570 | 5087 ft | 267 kts | 143° |
| 2026-04-25 20:35 | 43.32673 | -2.49492 | 5025 ft | 267 kts | 168° |
| 2026-04-25 20:36 | 43.30878 | -2.49451 | 4969 ft | 251 kts | 193° |
| 2026-04-25 20:36 | 43.29326 | -2.50324 | 4915 ft | 235 kts | 216° |
| 2026-04-25 20:36 | 43.28108 | -2.51768 | 4866 ft | 230 kts | 225° |
| 2026-04-25 20:36 | 43.26940 | -2.53262 | 4815 ft | 229 kts | 225° |
| 2026-04-25 20:37 | 43.25772 | -2.54755 | 4760 ft | 229 kts | 225° |
| 2026-04-25 20:37 | 43.24611 | -2.56240 | 4709 ft | 228 kts | 225° |
| 2026-04-25 20:37 | 43.23451 | -2.57725 | 4655 ft | 228 kts | 225° |
| 2026-04-25 20:37 | 43.22322 | -2.59168 | 4584 ft | 215 kts | 225° |
| 2026-04-25 20:38 | 43.21315 | -2.60614 | 4485 ft | 206 kts | 237° |
| 2026-04-25 20:38 | 43.20708 | -2.62361 | 4415 ft | 202 kts | 258° |
| 2026-04-25 20:38 | 43.20566 | -2.63606 | 4418 ft | 198 kts | 271° |
| 2026-04-25 20:38 | 43.20739 | -2.65464 | 4410 ft | 196 kts | 290° |
| 2026-04-25 20:39 | 43.21299 | -2.67159 | 4292 ft | 195 kts | 298° |
| 2026-04-25 20:39 | 43.21910 | -2.68802 | 4003 ft | 192 kts | 298° |
| 2026-04-25 20:39 | 43.22503 | -2.70403 | 3721 ft | 182 kts | 298° |
| 2026-04-25 20:39 | 43.22875 | -2.71409 | 3557 ft | 175 kts | 298° |
| 2026-04-25 20:40 | 43.23578 | -2.73315 | 3228 ft | 158 kts | 298° |
| 2026-04-25 20:40 | 43.24060 | -2.74619 | 2982 ft | 149 kts | 297° |
| 2026-04-25 20:40 | 43.24521 | -2.75875 | 2757 ft | 148 kts | 296° |
| 2026-04-25 20:40 | 43.24989 | -2.77145 | 2516 ft | 149 kts | 297° |
| 2026-04-25 20:41 | 43.25457 | -2.78411 | 2288 ft | 148 kts | 296° |
| 2026-04-25 20:41 | 43.25924 | -2.79683 | 2073 ft | 150 kts | 296° |
| 2026-04-25 20:41 | 43.26400 | -2.80969 | 1861 ft | 152 kts | 297° |
| 2026-04-25 20:41 | 43.26880 | -2.82272 | 1642 ft | 153 kts | 297° |
| 2026-04-25 20:42 | 43.27364 | -2.83581 | 1392 ft | 155 kts | 298° |
| 2026-04-25 20:42 | 43.27852 | -2.84896 | 1151 ft | 155 kts | 298° |
| 2026-04-25 20:42 | 43.28337 | -2.86211 | 898 ft | 153 kts | 297° |
| 2026-04-25 20:42 | 43.28810 | -2.87497 | 654 ft | 149 kts | 297° |
| 2026-04-25 20:43 | 43.29273 | -2.88756 | 414 ft | 147 kts | 297° |
| 2026-04-25 20:43 | 43.29723 | -2.89996 | 208 ft | 142 kts | 297° |
| 2026-04-25 20:43 | 43.30135 | -2.91125 | 125 ft | 115 kts | 296° |
| 2026-04-25 20:43 | 43.30415 | -2.91892 | 124 ft | 65 kts | 296° |
| 2026-04-25 20:44 | 43.30528 | -2.92200 | 125 ft | 11 kts | 297° |
| 2026-04-25 20:44 | 43.30563 | -2.92293 | 124 ft | 11 kts | 297° |
| 2026-04-25 20:44 | 43.30597 | -2.92385 | 123 ft | 11 kts | 297° |
| 2026-04-25 20:44 | 43.30647 | -2.92455 | 127 ft | 10 kts | 328° |
| 2026-04-25 20:45 | 43.30704 | -2.92485 | 131 ft | 2 kts | 346° |
| 2026-04-25 20:45 | 43.30744 | -2.92503 | 132 ft | 27 kts | 340° |
| 2026-04-25 20:45 | 43.30796 | -2.92422 | 132 ft | 13 kts | 109° |
| 2026-04-25 20:45 | 43.30757 | -2.92315 | 132 ft | 12 kts | 116° |
| 2026-04-25 20:46 | 43.30721 | -2.92220 | 132 ft | 11 kts | 117° |
| 2026-04-25 20:46 | 43.30683 | -2.92114 | 132 ft | 18 kts | 116° |
| 2026-04-25 20:46 | 43.30614 | -2.91926 | 132 ft | 25 kts | 117° |
| 2026-04-25 20:46 | 43.30533 | -2.91706 | 132 ft | 27 kts | 117° |
| 2026-04-25 20:47 | 43.30448 | -2.91473 | 132 ft | 28 kts | 116° |
| 2026-04-25 20:47 | 43.30361 | -2.91235 | 132 ft | 18 kts | 116° |
| 2026-04-25 20:47 | 43.30325 | -2.91136 | 132 ft | 10 kts | 116° |
| 2026-04-25 20:47 | 43.30311 | -2.91049 | 132 ft | 9 kts | 71° |
| 2026-04-25 20:48 | 43.30356 | -2.91005 | 132 ft | 7 kts | 26° |
| 2026-04-25 20:48 | 43.30398 | -2.90974 | 132 ft | 6 kts | 35° |
| 2026-04-25 20:48 | 43.30414 | -2.90913 | 132 ft | 7 kts | 87° |
| 2026-04-25 20:48 | 43.30414 | -2.90851 | 132 ft | 6 kts | 90° |
| 2026-04-25 20:49 | 43.30409 | -2.90803 | 132 ft | 3 kts | 105° |
| 2026-04-25 20:49 | 43.30425 | -2.90769 | 132 ft | 5 kts | 33° |
| 2026-04-25 20:49 | 43.30455 | -2.90747 | 132 ft | 5 kts | 27° |
| 2026-04-25 20:49 | 43.30465 | -2.90741 | 132 ft | 0 kts | 27° |